Time;durP1;ratioP1;P1;durP2;ratioP2;P2;SDS_P1;SDS_P2;PMS_P1;PMS_P2;Temp;Humidity;BMP_temperature;BMP_pressure;BME280_temperature;BME280_humidity;BME280_pressure;Samples;Min_cycle;Max_cycle;Signal;HPM_P1;HPM_P2
2022/05/15 00:01:22;;;;;;;0.40;0.40;;;13.40;99.90;;;;;;5023386;28;20042;-68
2022/05/15 00:03:48;;;;;;;2.45;1.80;;;13.30;99.90;;;;;;5013269;28;20049;-67
2022/05/15 00:06:13;;;;;;;2.63;1.95;;;13.40;99.90;;;;;;5012800;28;20052;-68
2022/05/15 00:08:39;;;;;;;0.30;0.30;;;13.40;99.90;;;;;;5013055;28;20597;-68
2022/05/15 00:11:07;;;;;;;0.68;0.52;;;13.40;99.90;;;;;;5010900;28;20069;-68
2022/05/15 00:13:32;;;;;;;0.75;0.68;;;13.40;99.90;;;;;;5014214;28;20046;-67
2022/05/15 00:15:58;;;;;;;0.00;0.00;;;13.30;99.90;;;;;;5012268;28;20037;-68
2022/05/15 00:18:24;;;;;;;1.40;0.63;;;13.40;99.90;;;;;;5032269;28;20477;-67
2022/05/15 00:20:51;;;;;;;1.40;0.80;;;13.40;99.90;;;;;;5030868;28;20087;-68
2022/05/15 00:23:18;;;;;;;0.90;0.90;;;13.30;99.90;;;;;;5031315;28;20053;-68
2022/05/15 00:25:44;;;;;;;0.55;0.55;;;13.40;99.90;;;;;;5029193;28;20061;-67
2022/05/15 00:28:10;;;;;;;1.90;0.90;;;13.30;99.90;;;;;;5028783;28;20186;-67
2022/05/15 00:30:37;;;;;;;2.10;1.75;;;13.20;99.90;;;;;;5032431;28;20485;-67
2022/05/15 00:33:03;;;;;;;0.13;0.13;;;13.20;99.90;;;;;;5032645;28;20045;-68
2022/05/15 00:35:29;;;;;;;0.40;0.40;;;13.20;99.90;;;;;;5031560;28;20504;-68
2022/05/15 00:37:55;;;;;;;0.60;0.60;;;13.20;99.90;;;;;;5026630;28;20042;-67
2022/05/15 00:40:22;;;;;;;1.08;0.82;;;13.20;99.90;;;;;;5012068;28;20049;-68
2022/05/15 00:42:48;;;;;;;0.38;0.38;;;13.20;99.90;;;;;;5012350;28;20042;-68
2022/05/15 00:45:14;;;;;;;0.25;0.20;;;13.10;99.90;;;;;;5013893;28;20141;-68
2022/05/15 00:47:41;;;;;;;2.85;1.58;;;13.20;99.90;;;;;;5031922;28;20501;-67
2022/05/15 00:50:11;;;;;;;0.47;0.47;;;13.20;99.90;;;;;;5020186;28;20394;-67
2022/05/15 00:52:40;;;;;;;1.17;0.73;;;13.20;99.90;;;;;;5012496;28;20038;-68
2022/05/15 00:55:20;;;;;;;0.63;0.63;;;13.10;99.90;;;;;;5027161;28;20045;-67
2022/05/15 00:57:52;;;;;;;0.30;0.30;;;13.00;99.90;;;;;;5025810;28;20053;-67
2022/05/15 01:00:23;;;;;;;0.30;0.30;;;13.00;99.90;;;;;;5028121;28;20053;-67
2022/05/15 01:02:55;;;;;;;0.75;0.65;;;13.00;99.90;;;;;;5031842;28;20060;-68
2022/05/15 01:05:21;;;;;;;1.27;1.17;;;13.10;99.90;;;;;;5010128;28;20034;-68
2022/05/15 01:07:47;;;;;;;0.85;0.85;;;13.00;99.90;;;;;;5011351;28;20037;-68
2022/05/15 01:10:13;;;;;;;0.10;0.10;;;13.00;99.90;;;;;;5011642;28;20165;-68
2022/05/15 01:12:41;;;;;;;1.67;0.95;;;13.00;99.90;;;;;;5010745;28;20061;-67
2022/05/15 01:15:16;;;;;;;0.15;0.15;;;13.00;99.90;;;;;;5012408;28;20125;-68
2022/05/15 01:17:42;;;;;;;2.75;1.55;;;12.90;99.90;;;;;;5027795;28;20049;-67
2022/05/15 01:20:13;;;;;;;0.20;0.20;;;12.90;99.90;;;;;;5026196;28;20045;-67
2022/05/15 01:22:39;;;;;;;8.70;1.23;;;12.90;99.90;;;;;;5031840;28;20053;-68
2022/05/15 01:25:12;;;;;;;0.85;0.85;;;12.90;99.90;;;;;;5031128;28;20057;-68
2022/05/15 01:27:37;;;;;;;4.38;1.63;;;12.80;99.90;;;;;;5029794;28;20045;-68
2022/05/15 01:30:05;;;;;;;8.25;1.52;;;12.70;99.90;;;;;;5031567;28;20056;-68
2022/05/15 01:32:31;;;;;;;0.50;0.50;;;12.70;99.90;;;;;;5030236;28;20088;-68
2022/05/15 01:34:57;;;;;;;0.47;0.47;;;12.60;99.90;;;;;;5022111;28;20045;-67
2022/05/15 01:37:23;;;;;;;0.57;0.57;;;12.60;99.90;;;;;;5011283;28;20096;-68
2022/05/15 01:39:48;;;;;;;1.65;0.57;;;12.60;99.90;;;;;;5012440;28;20046;-68
2022/05/15 01:42:14;;;;;;;1.23;0.75;;;12.60;99.90;;;;;;5021229;28;20052;-68
2022/05/15 01:44:40;;;;;;;1.98;1.50;;;12.70;99.90;;;;;;5029276;28;20050;-68
2022/05/15 01:47:06;;;;;;;0.25;0.25;;;12.70;99.90;;;;;;5030593;28;20092;-68
2022/05/15 01:49:31;;;;;;;0.10;0.10;;;12.70;99.90;;;;;;5015161;28;20038;-67
2022/05/15 01:51:57;;;;;;;0.20;0.20;;;12.60;99.90;;;;;;5010979;28;20403;-68
2022/05/15 01:54:23;;;;;;;0.10;0.10;;;12.70;99.90;;;;;;5014248;28;20045;-67
2022/05/15 01:56:48;;;;;;;0.00;0.00;;;12.70;99.90;;;;;;5013789;28;20172;-67
2022/05/15 01:59:14;;;;;;;0.10;0.10;;;12.60;99.90;;;;;;5012538;28;20053;-67
2022/05/15 02:01:40;;;;;;;0.80;0.77;;;12.60;99.90;;;;;;5029464;28;20045;-68
2022/05/15 02:04:07;;;;;;;1.00;0.98;;;12.60;99.90;;;;;;5029226;28;20448;-68
2022/05/15 02:06:33;;;;;;;0.30;0.30;;;12.60;99.90;;;;;;5029957;28;20045;-68
2022/05/15 02:08:59;;;;;;;0.10;0.10;;;12.60;99.90;;;;;;5027539;28;20140;-67
2022/05/15 02:11:24;;;;;;;0.20;0.20;;;12.60;99.90;;;;;;5025668;28;20129;-68
2022/05/15 02:13:50;;;;;;;0.15;0.15;;;12.50;99.90;;;;;;5012766;28;20123;-68
2022/05/15 02:16:16;;;;;;;2.92;1.08;;;12.60;99.90;;;;;;5011922;28;20045;-68
2022/05/15 02:18:41;;;;;;;0.13;0.13;;;12.60;99.90;;;;;;5029283;28;20136;-68
2022/05/15 02:21:07;;;;;;;0.43;0.43;;;12.60;99.90;;;;;;5029960;28;20041;-67
2022/05/15 02:23:32;;;;;;;0.55;0.55;;;12.50;99.90;;;;;;5030849;28;20049;-68
2022/05/15 02:25:58;;;;;;;0.25;0.25;;;12.60;99.90;;;;;;5028150;28;20477;-68
2022/05/15 02:28:24;;;;;;;0.60;0.60;;;12.50;99.90;;;;;;5009868;28;20052;-68
2022/05/15 02:30:50;;;;;;;2.65;1.25;;;12.50;99.90;;;;;;5014330;28;20052;-68
2022/05/15 02:33:17;;;;;;;0.10;0.10;;;12.50;99.90;;;;;;5028932;28;20045;-68
2022/05/15 02:35:43;;;;;;;15.63;1.20;;;12.60;99.90;;;;;;5021225;28;20038;-67
2022/05/15 02:38:09;;;;;;;0.05;0.05;;;12.40;99.90;;;;;;5010656;28;20048;-68
2022/05/15 02:40:35;;;;;;;0.00;0.00;;;12.40;99.90;;;;;;5009773;28;20493;-68
2022/05/15 02:43:00;;;;;;;0.35;0.35;;;12.50;99.90;;;;;;5010513;28;20045;-68
2022/05/15 02:45:26;;;;;;;2.10;1.40;;;12.40;99.90;;;;;;5019614;28;20053;-69
2022/05/15 02:47:52;;;;;;;0.20;0.20;;;12.30;99.90;;;;;;5029721;28;20095;-67
2022/05/15 02:53:03;;;;;;;2.95;1.60;;;12.20;99.90;;;;;;5010725;28;20394;-68
2022/05/15 02:55:28;;;;;;;0.10;0.10;;;12.20;99.90;;;;;;5010008;28;20046;-68
2022/05/15 02:57:54;;;;;;;0.38;0.38;;;12.20;99.90;;;;;;5008289;28;20133;-68
2022/05/15 03:00:23;;;;;;;3.72;1.65;;;12.20;99.90;;;;;;5027029;28;20537;-68
2022/05/15 03:02:49;;;;;;;0.40;0.40;;;12.20;99.90;;;;;;5025999;28;20049;-68
2022/05/15 03:05:16;;;;;;;1.05;1.05;;;12.20;99.90;;;;;;5029996;28;20042;-68
2022/05/15 03:07:42;;;;;;;1.85;0.98;;;12.10;99.90;;;;;;5009999;28;20077;-68
2022/05/15 03:10:10;;;;;;;12.00;2.65;;;12.10;99.90;;;;;;5008348;28;20085;-68
2022/05/15 03:12:35;;;;;;;0.20;0.20;;;12.10;99.90;;;;;;5011644;28;20042;-68
2022/05/15 03:15:02;;;;;;;23.42;3.00;;;12.10;99.90;;;;;;5017461;28;20049;-68
2022/05/15 03:17:27;;;;;;;0.20;0.20;;;12.10;99.90;;;;;;5011104;28;20041;-68
2022/05/15 03:19:53;;;;;;;0.32;0.32;;;12.00;99.90;;;;;;5029971;28;20048;-68
2022/05/15 03:22:18;;;;;;;0.08;0.08;;;12.00;99.90;;;;;;5029715;28;20390;-68
2022/05/15 03:24:44;;;;;;;5.38;1.08;;;12.00;99.90;;;;;;5027049;28;20052;-68
2022/05/15 03:27:09;;;;;;;0.13;0.13;;;12.00;99.90;;;;;;5030008;28;20096;-68
2022/05/15 03:29:35;;;;;;;0.10;0.10;;;12.00;99.90;;;;;;5028371;28;20084;-68
2022/05/15 03:32:01;;;;;;;2.17;1.98;;;12.00;99.90;;;;;;5015229;28;20037;-68
2022/05/15 03:34:26;;;;;;;1.02;0.63;;;12.00;99.90;;;;;;5010286;28;20049;-68
2022/05/15 03:36:53;;;;;;;1.10;0.85;;;11.90;99.90;;;;;;5009427;28;20057;-68
2022/05/15 03:39:20;;;;;;;0.00;0.00;;;11.90;99.90;;;;;;5008675;28;20092;-68
2022/05/15 03:41:47;;;;;;;0.28;0.28;;;11.90;99.90;;;;;;5010378;28;20042;-68
2022/05/15 03:44:13;;;;;;;2.08;0.55;;;11.90;99.90;;;;;;5007911;28;20485;-68
2022/05/15 03:46:39;;;;;;;0.40;0.40;;;11.90;99.90;;;;;;5013240;28;20041;-68
2022/05/15 03:49:05;;;;;;;0.20;0.20;;;11.90;99.90;;;;;;5029488;28;20049;-68
2022/05/15 03:51:32;;;;;;;1.45;0.45;;;11.90;99.90;;;;;;5028842;28;20041;-68
2022/05/15 03:53:57;;;;;;;14.23;1.23;;;12.00;99.90;;;;;;5029966;28;20051;-68
2022/05/15 03:59:10;;;;;;;0.40;0.38;;;11.90;99.90;;;;;;5022900;28;20425;-68
2022/05/15 04:01:36;;;;;;;1.17;0.90;;;11.90;99.90;;;;;;5033169;28;20037;-68
2022/05/15 04:04:01;;;;;;;0.28;0.28;;;11.90;99.90;;;;;;5030507;28;20552;-68
2022/05/15 04:06:28;;;;;;;0.00;0.00;;;11.80;99.90;;;;;;5032383;28;20152;-68
2022/05/15 04:08:53;;;;;;;0.13;0.13;;;11.80;99.90;;;;;;5020258;28;20072;-68
2022/05/15 04:11:19;;;;;;;4.68;0.88;;;11.90;99.90;;;;;;5013095;28;20117;-68
2022/05/15 04:13:45;;;;;;;0.00;0.00;;;12.00;99.90;;;;;;5012351;28;20494;-67
2022/05/15 04:16:10;;;;;;;0.25;0.25;;;11.90;99.90;;;;;;5013196;28;20045;-68
2022/05/15 04:18:36;;;;;;;0.10;0.10;;;11.90;99.90;;;;;;5012219;28;20052;-68
2022/05/15 04:21:03;;;;;;;0.10;0.10;;;11.90;99.90;;;;;;5011062;28;20473;-68
2022/05/15 04:23:29;;;;;;;12.70;1.27;;;12.00;99.90;;;;;;5011755;28;20140;-68
2022/05/15 04:25:55;;;;;;;1.17;0.30;;;12.00;99.90;;;;;;5013371;28;20041;-68
2022/05/15 04:28:20;;;;;;;0.35;0.35;;;12.00;99.90;;;;;;5013003;28;20060;-68
2022/05/15 04:30:46;;;;;;;1.63;1.52;;;12.10;99.90;;;;;;5013217;28;20402;-68
2022/05/15 04:33:12;;;;;;;9.95;1.67;;;12.10;99.90;;;;;;5011031;28;20398;-68
2022/05/15 04:35:37;;;;;;;1.63;0.82;;;12.20;99.90;;;;;;5011489;28;20466;-69
2022/05/15 04:38:04;;;;;;;0.93;0.90;;;12.10;99.90;;;;;;5012472;28;20048;-68
2022/05/15 04:40:30;;;;;;;0.43;0.43;;;12.10;99.90;;;;;;5011987;28;20050;-69
2022/05/15 04:42:55;;;;;;;0.17;0.17;;;12.10;99.90;;;;;;5011674;28;20068;-69
2022/05/15 04:45:21;;;;;;;2.30;1.02;;;12.20;99.90;;;;;;5012379;28;20496;-68
2022/05/15 04:47:47;;;;;;;0.43;0.40;;;12.20;99.90;;;;;;5017382;28;20048;-68
2022/05/15 04:50:14;;;;;;;2.60;1.65;;;12.20;99.90;;;;;;5032187;28;20046;-68
2022/05/15 04:52:40;;;;;;;0.10;0.10;;;12.20;99.90;;;;;;5032129;28;20057;-68
2022/05/15 04:55:06;;;;;;;0.50;0.50;;;12.20;99.90;;;;;;5027895;28;20052;-68
2022/05/15 04:57:32;;;;;;;0.65;0.65;;;12.30;99.90;;;;;;5030631;28;20505;-69
2022/05/15 04:59:58;;;;;;;0.13;0.13;;;12.20;99.90;;;;;;5032383;28;20057;-69
2022/05/15 05:02:23;;;;;;;0.85;0.65;;;12.30;99.90;;;;;;5029885;28;20084;-69
2022/05/15 05:04:49;;;;;;;0.32;0.32;;;12.30;99.90;;;;;;5020756;28;20072;-69
2022/05/15 05:07:14;;;;;;;0.10;0.10;;;12.40;99.90;;;;;;5012222;28;20034;-69
2022/05/15 05:09:40;;;;;;;1.17;0.70;;;12.40;99.90;;;;;;5012539;28;20050;-69
2022/05/15 05:12:06;;;;;;;4.07;2.45;;;12.40;99.90;;;;;;5012145;28;20045;-68
2022/05/15 05:14:31;;;;;;;4.38;2.58;;;12.50;99.90;;;;;;5014062;28;20038;-69
2022/05/15 05:16:57;;;;;;;2.25;1.95;;;12.40;99.90;;;;;;5022873;28;20052;-69
2022/05/15 05:19:22;;;;;;;1.55;0.57;;;12.40;99.90;;;;;;5031885;28;20045;-69
2022/05/15 05:21:48;;;;;;;0.28;0.28;;;12.40;99.90;;;;;;5014177;28;20026;-69
2022/05/15 05:24:14;;;;;;;1.65;1.45;;;12.50;99.90;;;;;;5012145;28;20049;-69
2022/05/15 05:26:39;;;;;;;0.20;0.20;;;12.50;99.90;;;;;;5031384;28;20516;-69
2022/05/15 05:29:05;;;;;;;0.32;0.32;;;12.60;99.90;;;;;;5016497;28;20107;-69
2022/05/15 05:31:31;;;;;;;0.40;0.40;;;12.60;99.90;;;;;;5011130;28;20446;-69
2022/05/15 05:33:56;;;;;;;0.10;0.10;;;12.70;99.90;;;;;;5016760;28;20052;-69
2022/05/15 05:36:22;;;;;;;0.20;0.20;;;12.70;99.90;;;;;;5029099;28;20456;-69
2022/05/15 05:38:48;;;;;;;0.35;0.35;;;12.80;99.90;;;;;;5030537;28;20049;-69
2022/05/15 05:41:13;;;;;;;2.30;1.40;;;12.90;99.90;;;;;;5024335;28;20065;-69
2022/05/15 05:43:39;;;;;;;0.82;0.82;;;12.90;99.90;;;;;;5030293;28;20088;-69
2022/05/15 05:46:05;;;;;;;0.10;0.10;;;12.90;99.90;;;;;;5016058;28;20030;-69
2022/05/15 05:48:31;;;;;;;0.32;0.22;;;13.00;99.90;;;;;;5011289;28;20108;-69
2022/05/15 05:50:57;;;;;;;0.82;0.82;;;13.10;99.90;;;;;;5009836;28;20041;-69
2022/05/15 05:53:23;;;;;;;0.10;0.10;;;13.10;99.90;;;;;;5025758;28;20390;-69
2022/05/15 05:55:49;;;;;;;0.17;0.17;;;13.20;99.90;;;;;;5011480;28;20038;-69
2022/05/15 05:58:14;;;;;;;0.57;0.57;;;13.20;99.90;;;;;;5010402;28;20100;-69
2022/05/15 06:00:40;;;;;;;0.40;0.40;;;13.20;99.90;;;;;;5010522;28;20080;-69
2022/05/15 06:05:51;;;;;;;0.65;0.65;;;13.40;99.90;;;;;;5011082;28;20061;-69
2022/05/15 06:08:18;;;;;;;0.00;0.00;;;13.40;99.90;;;;;;5011047;28;20054;-69
2022/05/15 06:10:45;;;;;;;0.68;0.65;;;13.50;99.90;;;;;;5030447;28;20041;-69
2022/05/15 06:13:10;;;;;;;0.60;0.50;;;13.50;99.90;;;;;;5030342;28;20077;-69
2022/05/15 06:15:37;;;;;;;5.28;0.75;;;13.60;99.90;;;;;;5012931;28;20501;-69
2022/05/15 06:18:04;;;;;;;0.30;0.30;;;13.70;99.90;;;;;;5010620;28;20421;-70
2022/05/15 06:20:30;;;;;;;0.77;0.32;;;13.70;99.90;;;;;;5012753;28;20049;-70
2022/05/15 06:22:56;;;;;;;0.52;0.52;;;13.70;99.90;;;;;;5029508;28;20041;-70
2022/05/15 06:25:22;;;;;;;0.10;0.10;;;13.80;99.90;;;;;;5028986;28;20079;-70
2022/05/15 06:27:48;;;;;;;0.40;0.40;;;13.80;99.90;;;;;;5019694;28;20033;-69
2022/05/15 06:30:15;;;;;;;0.75;0.75;;;13.90;99.90;;;;;;5009690;28;20045;-69
2022/05/15 06:32:40;;;;;;;0.32;0.32;;;13.90;99.90;;;;;;5010324;28;20046;-69
2022/05/15 06:35:08;;;;;;;3.63;0.52;;;14.00;99.90;;;;;;5009851;28;20050;-69
2022/05/15 06:37:33;;;;;;;12.88;1.55;;;14.10;99.90;;;;;;5009846;28;20048;-69
2022/05/15 06:39:59;;;;;;;0.10;0.10;;;14.10;99.90;;;;;;5010510;28;20038;-70
2022/05/15 06:42:28;;;;;;;0.45;0.45;;;14.20;99.90;;;;;;5010696;28;20073;-69
2022/05/15 06:44:54;;;;;;;0.08;0.08;;;14.20;99.90;;;;;;5011312;28;20062;-69
2022/05/15 06:47:19;;;;;;;5.07;2.00;;;14.30;99.90;;;;;;5007857;28;20054;-69
2022/05/15 06:49:45;;;;;;;0.55;0.55;;;14.40;99.90;;;;;;5011314;28;20095;-69
2022/05/15 06:52:10;;;;;;;1.70;1.60;;;14.40;99.90;;;;;;5010970;28;20049;-69
2022/05/15 06:54:36;;;;;;;0.30;0.30;;;14.50;99.90;;;;;;5010560;28;20042;-69
2022/05/15 06:59:46;;;;;;;0.10;0.10;;;14.70;99.90;;;;;;5030974;28;20054;-69
2022/05/15 07:02:11;;;;;;;0.05;0.05;;;14.80;99.90;;;;;;5030125;28;20040;-69
2022/05/15 07:04:37;;;;;;;0.00;0.00;;;14.80;99.90;;;;;;5028333;28;20080;-69
2022/05/15 07:07:03;;;;;;;2.72;0.63;;;14.90;99.90;;;;;;5030674;28;20041;-69
2022/05/15 07:09:29;;;;;;;17.83;1.88;;;15.00;99.90;;;;;;5029803;28;20049;-69
2022/05/15 07:11:56;;;;;;;0.20;0.20;;;15.00;99.90;;;;;;5030894;28;20075;-68
2022/05/15 07:14:22;;;;;;;2.55;1.10;;;15.10;99.90;;;;;;5020813;28;20038;-69
2022/05/15 07:16:47;;;;;;;0.00;0.00;;;15.20;99.90;;;;;;5009140;28;20116;-68
2022/05/15 07:19:13;;;;;;;9.23;0.73;;;15.30;99.90;;;;;;5009237;28;20152;-69
2022/05/15 07:21:39;;;;;;;0.08;0.08;;;15.40;99.90;;;;;;5009011;28;20976;-68
2022/05/15 07:24:05;;;;;;;0.57;0.57;;;15.50;99.90;;;;;;5008461;28;20050;-68
2022/05/15 07:26:31;;;;;;;1.10;0.88;;;15.60;99.90;;;;;;5010308;28;20038;-69
2022/05/15 07:28:57;;;;;;;0.17;0.17;;;15.60;99.90;;;;;;5008712;28;20046;-69
2022/05/15 07:31:22;;;;;;;0.00;0.00;;;15.70;99.90;;;;;;5028855;28;20495;-69
2022/05/15 07:33:49;;;;;;;0.10;0.10;;;15.80;99.90;;;;;;5031239;28;20408;-68
2022/05/15 07:36:15;;;;;;;0.43;0.43;;;15.80;99.90;;;;;;5033241;28;20041;-68
2022/05/15 07:38:41;;;;;;;0.08;0.08;;;15.90;99.90;;;;;;5031592;28;20064;-68
2022/05/15 07:41:07;;;;;;;1.40;1.05;;;15.90;99.90;;;;;;5033265;28;20429;-69
2022/05/15 07:43:33;;;;;;;0.00;0.00;;;16.10;99.90;;;;;;5032861;28;20042;-69
2022/05/15 07:45:58;;;;;;;0.05;0.05;;;16.10;99.90;;;;;;5031668;28;20045;-69
2022/05/15 07:48:24;;;;;;;0.40;0.40;;;16.10;99.90;;;;;;5031747;28;20045;-68
2022/05/15 07:50:52;;;;;;;0.10;0.10;;;16.20;99.90;;;;;;5033181;28;20045;-68
2022/05/15 07:53:18;;;;;;;0.10;0.10;;;16.30;99.90;;;;;;5031061;28;20088;-68
2022/05/15 07:55:43;;;;;;;1.08;0.63;;;16.30;99.90;;;;;;5023917;28;20046;-68
2022/05/15 07:58:09;;;;;;;0.00;0.00;;;16.50;99.90;;;;;;5010974;28;20124;-69
2022/05/15 08:00:34;;;;;;;0.10;0.10;;;16.50;99.90;;;;;;5013667;28;20049;-69
2022/05/15 08:03:02;;;;;;;0.30;0.30;;;16.60;99.90;;;;;;5014418;28;20489;-69
2022/05/15 08:08:13;;;;;;;0.00;0.00;;;16.80;99.90;;;;;;5013264;28;20053;-69
2022/05/15 08:10:44;;;;;;;2.50;2.20;;;16.90;99.90;;;;;;5012191;28;20042;-69
2022/05/15 08:13:12;;;;;;;0.30;0.30;;;16.90;99.90;;;;;;5012732;28;20042;-69
2022/05/15 08:15:38;;;;;;;2.40;0.80;;;17.00;99.90;;;;;;5014261;28;20041;-69
2022/05/15 08:24:00;;;;;;;0.10;0.10;;;17.30;99.90;;;;;;5010679;28;20401;-68
2022/05/15 08:26:27;;;;;;;0.10;0.10;;;17.30;99.90;;;;;;5011402;28;20061;-69
2022/05/15 08:28:53;;;;;;;0.43;0.43;;;17.30;99.90;;;;;;5012634;28;20076;-68
2022/05/15 08:31:21;;;;;;;0.05;0.05;;;17.40;99.90;;;;;;5011718;28;20080;-68
2022/05/15 08:33:47;;;;;;;0.00;0.00;;;17.40;99.90;;;;;;5011587;28;20050;-68
2022/05/15 08:36:14;;;;;;;0.05;0.05;;;17.50;99.90;;;;;;5011659;28;20052;-68
2022/05/15 08:38:40;;;;;;;0.68;0.25;;;17.40;99.90;;;;;;5013201;28;20311;-69
2022/05/15 08:41:41;;;;;;;0.30;0.30;;;17.50;99.90;;;;;;5011030;28;20038;-69
2022/05/15 08:44:14;;;;;;;0.00;0.00;;;17.60;99.90;;;;;;5018866;28;20405;-69
2022/05/15 08:46:42;;;;;;;0.10;0.10;;;17.70;99.90;;;;;;5032073;28;20053;-69
2022/05/15 08:49:10;;;;;;;0.00;0.00;;;17.80;99.90;;;;;;5031204;28;20053;-68
2022/05/15 08:51:36;;;;;;;0.43;0.40;;;18.00;99.90;;;;;;5027050;28;20076;-68
2022/05/15 08:54:07;;;;;;;0.35;0.35;;;17.90;99.90;;;;;;5012141;28;20042;-69
2022/05/15 08:56:39;;;;;;;0.05;0.05;;;18.00;99.90;;;;;;5012919;28;20077;-68
2022/05/15 08:59:12;;;;;;;0.00;0.00;;;18.10;99.90;;;;;;5011177;28;20058;-69
2022/05/15 09:01:38;;;;;;;2.88;2.33;;;18.20;99.90;;;;;;5010662;28;20085;-69
2022/05/15 09:04:03;;;;;;;3.50;1.45;;;18.30;99.90;;;;;;5012598;28;20077;-68
2022/05/15 09:06:56;;;;;;;0.00;0.00;;;18.30;99.90;;;;;;5012591;28;20092;-69
2022/05/15 09:09:34;;;;;;;0.10;0.10;;;18.40;99.90;;;;;;5011234;28;20099;-69
2022/05/15 09:12:14;;;;;;;1.02;0.85;;;18.50;99.90;;;;;;5012401;28;20517;-68
2022/05/15 09:14:40;;;;;;;0.10;0.10;;;18.80;99.90;;;;;;5015140;28;20160;-68
2022/05/15 09:17:16;;;;;;;0.20;0.20;;;19.00;99.90;;;;;;5011000;28;20450;-68
2022/05/15 09:19:43;;;;;;;0.30;0.30;;;19.10;99.90;;;;;;5012271;28;20049;-68
2022/05/15 09:22:12;;;;;;;0.20;0.20;;;19.10;99.90;;;;;;5011539;28;20042;-68
2022/05/15 09:24:51;;;;;;;0.00;0.00;;;19.20;99.90;;;;;;5011879;28;20038;-68
2022/05/15 09:27:21;;;;;;;0.00;0.00;;;19.20;99.90;;;;;;5022599;28;20041;-68
2022/05/15 09:29:58;;;;;;;0.05;0.05;;;19.30;99.90;;;;;;5029368;28;20049;-68
2022/05/15 09:32:27;;;;;;;0.82;0.55;;;19.40;99.90;;;;;;5031471;28;20509;-68
2022/05/15 09:34:55;;;;;;;0.10;0.10;;;19.40;99.90;;;;;;5030357;28;20045;-68
2022/05/15 09:40:22;;;;;;;0.47;0.47;;;20.30;99.90;;;;;;5029767;28;20053;-68
2022/05/15 09:45:54;;;;;;;0.10;0.10;;;21.20;99.90;;;;;;5015728;28;20192;-68
2022/05/15 09:48:24;;;;;;;0.45;0.45;;;21.70;99.90;;;;;;5010883;28;20064;-68
2022/05/15 09:50:52;;;;;;;0.00;0.00;;;22.00;99.90;;;;;;5011947;28;20049;-68
2022/05/15 09:53:38;;;;;;;3.10;1.35;;;22.20;99.90;;;;;;5011428;28;20050;-68
2022/05/15 09:56:03;;;;;;;0.43;0.43;;;22.40;98.80;;;;;;5009401;28;20045;-68
2022/05/15 09:58:47;;;;;;;0.00;0.00;;;22.30;99.00;;;;;;5010336;28;20052;-68
2022/05/15 10:01:33;;;;;;;0.00;0.00;;;22.50;98.80;;;;;;5010556;28;20535;-68
2022/05/15 10:04:00;;;;;;;0.20;0.20;;;22.30;98.30;;;;;;5018080;28;20056;-68
2022/05/15 10:06:29;;;;;;;0.47;0.35;;;22.60;99.00;;;;;;5030822;28;20492;-68
2022/05/15 10:09:11;;;;;;;0.22;0.22;;;22.60;98.60;;;;;;5028807;28;20045;-68
2022/05/15 10:11:40;;;;;;;0.75;0.10;;;22.70;98.30;;;;;;5030106;28;20045;-67
2022/05/15 10:14:14;;;;;;;0.10;0.10;;;22.70;98.00;;;;;;5025886;28;20591;-68
2022/05/15 10:16:50;;;;;;;0.20;0.20;;;22.80;97.70;;;;;;5024428;28;20408;-68
2022/05/15 10:19:36;;;;;;;2.63;0.73;;;23.00;98.20;;;;;;5028719;28;20057;-67
2022/05/15 10:22:35;;;;;;;1.45;0.60;;;22.90;97.30;;;;;;5017136;28;20121;-68
2022/05/15 10:25:25;;;;;;;1.27;1.17;;;22.70;97.00;;;;;;5010211;28;20060;-67
2022/05/15 10:27:58;;;;;;;1.08;0.98;;;22.70;96.70;;;;;;5013020;28;20493;-67
2022/05/15 10:30:33;;;;;;;1.55;0.88;;;22.80;98.00;;;;;;5030349;28;20120;-68
2022/05/15 10:33:06;;;;;;;0.32;0.32;;;22.70;96.80;;;;;;5028382;28;20104;-68
2022/05/15 10:36:01;;;;;;;0.82;0.77;;;22.60;96.80;;;;;;5029797;28;20041;-68
2022/05/15 10:38:48;;;;;;;0.28;0.25;;;22.80;97.70;;;;;;5028324;28;20092;-67
2022/05/15 10:41:20;;;;;;;1.75;0.15;;;22.70;97.00;;;;;;5030363;28;20069;-68
2022/05/15 10:43:59;;;;;;;6.18;1.80;;;22.90;97.70;;;;;;5011116;28;20415;-68
2022/05/15 10:46:47;;;;;;;0.57;0.57;;;22.90;97.00;;;;;;5010979;28;20088;-67
2022/05/15 10:49:28;;;;;;;0.80;0.80;;;22.90;97.60;;;;;;5010541;28;20092;-68
2022/05/15 10:52:10;;;;;;;1.35;0.45;;;22.90;96.70;;;;;;5009461;28;20042;-67
2022/05/15 10:57:58;;;;;;;0.20;0.20;;;23.10;97.60;;;;;;5030244;28;20088;-67
2022/05/15 11:00:42;;;;;;;6.82;1.38;;;23.10;96.60;;;;;;5026849;28;20055;-67
2022/05/15 11:03:23;;;;;;;6.53;0.35;;;23.00;95.80;;;;;;5030065;28;20458;-67
2022/05/15 11:06:05;;;;;;;0.10;0.10;;;23.10;97.20;;;;;;5010280;28;20042;-67
2022/05/15 11:08:47;;;;;;;0.20;0.20;;;23.20;96.90;;;;;;5010888;28;20124;-68
2022/05/15 11:11:26;;;;;;;0.00;0.00;;;23.50;96.00;;;;;;5030238;28;20081;-67
2022/05/15 11:14:06;;;;;;;0.13;0.13;;;23.30;96.80;;;;;;5031408;28;20489;-67
2022/05/15 11:16:49;;;;;;;0.32;0.32;;;23.50;97.00;;;;;;5014347;28;20080;-67
2022/05/15 11:19:34;;;;;;;;;;;23.40;95.30;;;;;;5013249;28;20060;-68
2022/05/15 11:22:19;;;;;;;0.10;0.10;;;23.50;96.20;;;;;;5013454;28;19925;-67
2022/05/15 11:25:04;;;;;;;0.00;0.00;;;23.60;95.80;;;;;;5014547;28;20057;-68
2022/05/15 11:27:35;;;;;;;0.00;0.00;;;23.30;95.60;;;;;;5018435;28;20120;-67
2022/05/15 11:30:08;;;;;;;2.75;0.65;;;23.20;96.30;;;;;;5032960;28;20060;-68
2022/05/15 11:32:44;;;;;;;0.00;0.00;;;23.40;96.00;;;;;;5033881;28;20058;-68
2022/05/15 11:35:19;;;;;;;0.20;0.20;;;23.70;95.90;;;;;;5029037;28;20417;-67
2022/05/15 11:37:56;;;;;;;10.98;0.82;;;23.60;95.50;;;;;;5033722;28;20057;-67
2022/05/15 11:40:50;;;;;;;0.30;0.30;;;23.80;95.90;;;;;;5033548;28;20145;-67
2022/05/15 11:43:31;;;;;;;0.80;0.80;;;23.90;95.10;;;;;;5032812;28;20488;-68
2022/05/15 11:45:59;;;;;;;0.65;0.15;;;23.80;95.40;;;;;;5013059;28;20080;-68
2022/05/15 11:48:55;;;;;;;0.38;0.38;;;23.90;94.70;;;;;;5013549;28;20052;-68
2022/05/15 11:51:30;;;;;;;0.20;0.20;;;24.00;95.20;;;;;;5014028;28;20084;-68
2022/05/15 11:54:05;;;;;;;0.00;0.00;;;24.40;95.50;;;;;;5013348;28;20121;-68
2022/05/15 11:56:36;;;;;;;0.40;0.40;;;24.50;94.10;;;;;;5029441;28;20088;-68
2022/05/15 11:59:21;;;;;;;0.00;0.00;;;24.50;93.60;;;;;;5033453;28;20127;-68
2022/05/15 12:01:50;;;;;;;11.60;0.85;;;24.80;93.90;;;;;;5032251;28;20080;-68
2022/05/15 12:04:45;;;;;;;1.33;1.23;;;24.70;93.00;;;;;;5032652;28;20374;-68
2022/05/15 12:07:14;;;;;;;9.73;2.75;;;25.00;93.80;;;;;;5032133;28;20050;-68
2022/05/15 12:09:39;;;;;;;3.30;0.88;;;25.10;91.60;;;;;;5029866;28;20500;-68
2022/05/15 12:12:31;;;;;;;0.43;0.43;;;25.40;93.30;;;;;;5030324;28;20048;-68
2022/05/15 12:15:03;;;;;;;1.45;0.17;;;25.70;92.40;;;;;;5021845;28;20391;-68
2022/05/15 12:17:30;;;;;;;11.57;1.10;;;25.70;92.60;;;;;;5011388;28;20050;-68
2022/05/15 12:20:30;;;;;;;2.08;1.02;;;25.80;92.20;;;;;;5010118;28;20046;-68
2022/05/15 12:22:59;;;;;;;0.30;0.30;;;25.90;91.60;;;;;;5026075;28;20056;-68
2022/05/15 12:25:44;;;;;;;0.55;0.25;;;25.80;91.10;;;;;;5032104;28;20046;-68
2022/05/15 12:31:16;;;;;;;0.30;0.30;;;26.10;90.70;;;;;;5032949;28;20049;-68
2022/05/15 12:33:43;;;;;;;0.08;0.08;;;26.10;91.70;;;;;;5032637;28;20057;-69
2022/05/15 12:36:31;;;;;;;0.68;0.68;;;26.20;90.30;;;;;;5013258;28;20573;-69
2022/05/15 12:38:57;;;;;;;0.60;0.60;;;26.10;90.50;;;;;;5012197;28;20520;-68
2022/05/15 12:41:28;;;;;;;0.00;0.00;;;25.70;90.50;;;;;;5011759;28;20172;-69
2022/05/15 12:43:53;;;;;;;0.28;0.28;;;26.20;90.70;;;;;;5028750;28;20053;-69
2022/05/15 12:46:40;;;;;;;1.20;0.52;;;26.00;90.10;;;;;;5031775;28;20397;-68
2022/05/15 12:49:07;;;;;;;0.17;0.17;;;26.10;89.70;;;;;;5030832;28;20060;-69
2022/05/15 12:51:36;;;;;;;0.70;0.45;;;26.10;90.60;;;;;;5031450;28;20049;-69
2022/05/15 12:54:19;;;;;;;0.10;0.10;;;26.00;89.10;;;;;;5029457;28;20543;-68
2022/05/15 12:56:44;;;;;;;3.60;1.65;;;26.60;90.50;;;;;;5031059;28;20059;-69
2022/05/15 12:59:18;;;;;;;2.03;1.88;;;26.70;90.30;;;;;;5031910;28;20057;-69
2022/05/15 13:01:46;;;;;;;0.20;0.20;;;26.60;87.50;;;;;;5029343;28;20042;-69
2022/05/15 13:04:24;;;;;;;1.65;0.63;;;26.20;88.80;;;;;;5032182;28;20100;-69
2022/05/15 13:06:58;;;;;;;0.10;0.10;;;26.70;88.40;;;;;;5011498;28;20406;-69
2022/05/15 13:09:27;;;;;;;0.10;0.10;;;26.90;85.00;;;;;;5010736;28;20041;-69
2022/05/15 13:12:01;;;;;;;0.10;0.10;;;27.00;87.50;;;;;;5010904;28;20077;-69
2022/05/15 13:14:34;;;;;;;0.35;0.35;;;26.70;89.30;;;;;;5012939;28;20749;-69
2022/05/15 13:17:00;;;;;;;1.35;0.77;;;26.90;90.70;;;;;;5010691;28;20097;-69
2022/05/15 13:19:47;;;;;;;0.20;0.20;;;26.80;90.60;;;;;;5009278;28;20050;-69
2022/05/15 13:22:21;;;;;;;0.22;0.20;;;26.60;91.00;;;;;;5011218;28;20073;-68
2022/05/15 13:24:48;;;;;;;0.25;0.20;;;26.70;91.70;;;;;;5009695;28;20049;-69
2022/05/15 13:27:14;;;;;;;0.20;0.20;;;26.80;90.50;;;;;;5011923;28;20049;-69
2022/05/15 13:29:40;;;;;;;0.00;0.00;;;26.70;91.50;;;;;;5011020;28;20069;-69
2022/05/15 13:32:07;;;;;;;0.08;0.08;;;26.70;91.70;;;;;;5023138;28;20041;-69